createdAt,value
2023-03-26T00:01:33.359Z,96035.88
2023-03-26T00:04:01.328Z,96036.28
2023-03-26T00:06:31.740Z,96020.13
2023-03-26T00:08:59.006Z,96025.75
2023-03-26T00:11:28.690Z,96024.97
2023-03-26T00:13:57.700Z,96022.94
2023-03-26T00:16:31.051Z,96015.84
2023-03-26T00:18:59.896Z,96010.81
2023-03-26T00:21:29.048Z,96016.88
2023-03-26T00:23:59.732Z,96012.03
2023-03-26T00:26:31.229Z,96026.00
2023-03-26T00:29:00.132Z,96018.50
2023-03-26T00:31:27.454Z,96029.03
2023-03-26T00:33:55.509Z,96018.31
2023-03-26T00:36:25.584Z,96035.47
2023-03-26T00:38:53.745Z,96022.94
2023-03-26T00:41:26.394Z,96022.34
2023-03-26T00:43:56.930Z,96024.19
2023-03-26T00:46:30.502Z,96016.06
2023-03-26T00:48:58.971Z,96019.31
2023-03-26T00:51:27.603Z,96013.25
2023-03-26T00:53:55.006Z,96023.56
2023-03-26T00:56:21.790Z,96028.19
2023-03-26T00:58:50.267Z,96017.69
2023-03-26T01:01:28.519Z,96018.09
2023-03-26T01:04:08.876Z,96013.06
2023-03-26T01:06:41.350Z,96021.09
2023-03-26T01:09:18.691Z,96012.84
2023-03-26T01:11:46.051Z,96003.97
2023-03-26T01:14:18.890Z,96008.19
2023-03-26T01:16:53.881Z,96006.38
2023-03-26T01:19:45.289Z,96009.63
2023-03-26T01:22:18.415Z,96008.59
2023-03-26T01:24:48.599Z,96005.56
2023-03-26T01:27:33.605Z,95992.25
2023-03-26T01:30:34.448Z,95999.09
2023-03-26T01:33:16.240Z,95994.22
2023-03-26T01:35:56.687Z,96003.72
2023-03-26T01:38:52.551Z,96007.59
2023-03-26T01:41:45.764Z,96015.28
2023-03-26T01:44:42.787Z,96006.38
2023-03-26T01:47:11.016Z,95992.41
2023-03-26T01:49:37.958Z,96000.72
2023-03-26T01:52:14.707Z,95988.59
2023-03-26T01:54:41.614Z,95984.56
2023-03-26T01:57:43.787Z,95987.41
2023-03-26T02:00:32.880Z,95976.91
2023-03-26T02:03:17.719Z,95978.91
2023-03-26T02:06:16.630Z,95985.59
2023-03-26T02:08:58.210Z,95986.16
2023-03-26T02:11:34.779Z,95977.22
2023-03-26T02:14:05.965Z,95983.31
2023-03-26T02:16:33.155Z,95975.22
2023-03-26T02:19:00.365Z,95975.03
2023-03-26T02:21:28.664Z,95971.19
2023-03-26T02:24:04.207Z,95969.97
2023-03-26T02:26:33.905Z,95972.06
2023-03-26T02:29:04.610Z,95957.84
2023-03-26T02:31:31.531Z,95950.19
2023-03-26T02:33:58.394Z,95942.09
2023-03-26T02:36:27.854Z,95959.03
2023-03-26T02:38:57.883Z,95957.00
2023-03-26T02:41:24.833Z,95943.69
2023-03-26T02:43:51.619Z,95944.09
2023-03-26T02:46:18.468Z,95943.69
2023-03-26T02:48:45.269Z,95946.50
2023-03-26T02:51:12.062Z,95948.06
2023-03-26T02:53:39.319Z,95942.50
2023-03-26T02:56:06.865Z,95941.91
2023-03-26T02:58:33.708Z,95946.94
2023-03-26T03:01:03.262Z,95944.16
2023-03-26T03:03:30.376Z,95935.81
2023-03-26T03:05:57.943Z,95941.91
2023-03-26T03:08:28.093Z,95937.69
2023-03-26T03:11:16.745Z,95927.22
2023-03-26T03:13:44.865Z,95927.41
2023-03-26T03:16:11.679Z,95928.75
2023-03-26T03:18:38.557Z,95915.50
2023-03-26T03:21:06.466Z,95914.69
2023-03-26T03:23:33.503Z,95907.44
2023-03-26T03:26:00.274Z,95908.63
2023-03-26T03:28:27.230Z,95896.94
2023-03-26T03:30:54.032Z,95896.34
2023-03-26T03:33:21.335Z,95895.34
2023-03-26T03:35:49.620Z,95886.22
2023-03-26T03:38:17.777Z,95884.84
2023-03-26T03:40:44.801Z,95887.66
2023-03-26T03:43:11.695Z,95879.16
2023-03-26T03:45:38.488Z,95881.22
2023-03-26T03:48:05.840Z,95871.91
2023-03-26T03:50:35.513Z,95872.28
2023-03-26T03:53:05.483Z,95877.94
2023-03-26T03:55:32.310Z,95879.56
2023-03-26T03:57:59.874Z,95882.78
2023-03-26T04:00:26.656Z,95879.94
2023-03-26T04:02:54.336Z,95878.31
2023-03-26T04:05:21.626Z,95879.53
2023-03-26T04:07:48.509Z,95880.34
2023-03-26T04:10:16.350Z,95876.50
2023-03-26T04:12:43.299Z,95877.91
2023-03-26T04:15:10.329Z,95882.94
2023-03-26T04:17:42.507Z,95881.13
2023-03-26T04:20:16.129Z,95879.06
2023-03-26T04:22:43.966Z,95877.06
2023-03-26T04:25:12.718Z,95869.38
2023-03-26T04:27:42.585Z,95872.00
2023-03-26T04:30:15.654Z,95868.78
2023-03-26T04:32:43.117Z,95863.91
2023-03-26T04:35:14.271Z,95852.84
2023-03-26T04:37:44.210Z,95853.59
2023-03-26T04:40:18.267Z,95847.34
2023-03-26T04:42:47.762Z,95854.00
2023-03-26T04:45:22.274Z,95855.19
2023-03-26T04:47:50.273Z,95866.09
2023-03-26T04:50:17.271Z,95858.84
2023-03-26T04:52:45.275Z,95852.22
2023-03-26T04:55:24.960Z,95852.84
2023-03-26T04:57:56.682Z,95841.94
2023-03-26T05:00:23.635Z,95852.22
2023-03-26T05:02:50.555Z,95847.41
2023-03-26T05:05:18.149Z,95840.19
2023-03-26T05:07:45.154Z,95837.75
2023-03-26T05:10:14.830Z,95827.91
2023-03-26T05:12:42.313Z,95822.25
2023-03-26T05:15:11.533Z,95816.63
2023-03-26T05:17:41.413Z,95817.81
2023-03-26T05:20:30.388Z,95814.38
2023-03-26T05:22:57.356Z,95818.63
2023-03-26T05:25:24.312Z,95813.00
2023-03-26T05:27:51.292Z,95813.38
2023-03-26T05:30:21.423Z,95808.16
2023-03-26T05:32:49.386Z,95805.13
2023-03-26T05:35:17.813Z,95798.09
2023-03-26T05:37:46.234Z,95792.84
2023-03-26T05:40:16.803Z,95794.84
2023-03-26T05:42:44.080Z,95781.94
2023-03-26T05:45:13.958Z,95775.88
2023-03-26T05:47:41.052Z,95781.94
2023-03-26T05:50:09.398Z,95771.03
2023-03-26T05:52:36.245Z,95770.81
2023-03-26T05:55:03.542Z,95760.91
2023-03-26T05:57:31.786Z,95747.59
2023-03-26T05:59:58.592Z,95754.47
2023-03-26T06:02:25.512Z,95751.25
2023-03-26T06:04:52.400Z,95752.44
2023-03-26T06:07:19.840Z,95748.63
2023-03-26T06:09:46.863Z,95752.06
2023-03-26T06:12:14.069Z,95747.97
2023-03-26T06:14:42.809Z,95747.13
2023-03-26T06:17:10.493Z,95748.72
2023-03-26T06:19:37.841Z,95733.38
2023-03-26T06:22:05.710Z,95733.75
2023-03-26T06:24:33.329Z,95725.03
2023-03-26T06:27:00.192Z,95728.44
2023-03-26T06:29:27.194Z,95726.81
2023-03-26T06:31:54.258Z,95726.03
2023-03-26T06:34:21.669Z,95718.78
2023-03-26T06:36:48.897Z,95711.25
2023-03-26T06:39:16.154Z,95714.25
2023-03-26T06:41:43.024Z,95709.72
2023-03-26T06:44:11.141Z,95706.06
2023-03-26T06:46:38.027Z,95704.44
2023-03-26T06:49:04.924Z,95710.84
2023-03-26T06:51:31.807Z,95701.06
2023-03-26T06:53:58.561Z,95696.56
2023-03-26T06:56:25.327Z,95697.72
2023-03-26T06:58:52.222Z,95687.13
2023-03-26T07:01:19.043Z,95693.88
2023-03-26T07:03:45.885Z,95693.00
2023-03-26T07:06:12.708Z,95690.47
2023-03-26T07:08:39.542Z,95686.38
2023-03-26T07:11:06.761Z,95682.31
2023-03-26T07:13:33.513Z,95678.34
2023-03-26T07:16:00.455Z,95676.78
2023-03-26T07:18:27.292Z,95668.75
2023-03-26T07:20:54.802Z,95665.84
2023-03-26T07:23:22.055Z,95654.00
2023-03-26T07:25:49.726Z,95659.22
2023-03-26T07:29:03.607Z,95656.78
2023-03-26T07:31:47.197Z,95644.34
2023-03-26T07:34:41.077Z,95638.91
2023-03-26T07:37:36.299Z,95630.59
2023-03-26T07:40:42.113Z,95622.13
2023-03-26T07:43:30.414Z,95622.72
2023-03-26T07:45:57.659Z,95618.25
2023-03-26T07:48:27.701Z,95617.44
2023-03-26T07:50:56.595Z,95615.31
2023-03-26T07:53:24.238Z,95613.72
2023-03-26T07:56:08.892Z,95609.00
2023-03-26T07:59:07.593Z,95602.28
2023-03-26T08:02:16.597Z,95590.13
2023-03-26T08:04:57.390Z,95587.81
2023-03-26T08:07:39.413Z,95575.50
2023-03-26T08:10:51.941Z,95567.38
2023-03-26T08:13:42.827Z,95558.56
2023-03-26T08:16:29.904Z,95544.16
2023-03-26T08:19:16.537Z,95545.72
2023-03-26T08:22:04.228Z,95547.53
2023-03-26T08:25:13.742Z,95540.22
2023-03-26T08:27:52.537Z,95544.47
2023-03-26T08:30:26.839Z,95536.56
2023-03-26T08:33:13.706Z,95531.88
2023-03-26T08:35:42.416Z,95508.13
2023-03-26T08:38:10.918Z,95509.06
2023-03-26T08:40:56.706Z,95514.53
2023-03-26T08:44:04.676Z,95519.13
2023-03-26T08:47:06.547Z,95510.66
2023-03-26T08:50:06.374Z,95507.44
2023-03-26T08:53:20.902Z,95501.69
2023-03-26T08:55:57.346Z,95501.03
2023-03-26T08:59:06.976Z,95510.66
2023-03-26T09:01:49.230Z,95498.41
2023-03-26T09:04:34.629Z,95500.91
2023-03-26T09:07:49.553Z,95493.56
2023-03-26T09:10:48.492Z,95484.50
2023-03-26T09:14:06.057Z,95477.41
2023-03-26T09:17:00.751Z,95497.84
2023-03-26T09:20:18.038Z,95501.81
2023-03-26T09:23:41.730Z,95497.91
2023-03-26T09:26:50.938Z,95501.72
2023-03-26T09:29:57.967Z,95508.81
2023-03-26T09:32:57.428Z,95506.50
2023-03-26T09:35:50.644Z,95498.34
2023-03-26T09:38:53.357Z,95491.72
2023-03-26T09:41:44.030Z,95485.72
2023-03-26T09:44:23.837Z,95484.59
2023-03-26T09:47:34.819Z,95484.03
2023-03-26T09:50:25.752Z,95474.91
2023-03-26T09:53:10.221Z,95473.66
2023-03-26T09:56:11.581Z,95469.66
2023-03-26T09:58:57.293Z,95469.75
2023-03-26T10:01:49.336Z,95461.22
2023-03-26T10:04:59.455Z,95465.94
2023-03-26T10:07:47.798Z,95461.69
2023-03-26T10:10:27.445Z,95452.09
2023-03-26T10:13:15.238Z,95452.69
2023-03-26T10:16:10.523Z,95449.94
2023-03-26T10:19:20.188Z,95454.72
2023-03-26T10:22:21.263Z,95448.44
2023-03-26T10:25:15.153Z,95448.53
2023-03-26T10:28:04.880Z,95434.25
2023-03-26T10:30:43.341Z,95428.06
2023-03-26T10:33:31.661Z,95437.00
2023-03-26T10:36:29.393Z,95441.66
2023-03-26T10:39:03.747Z,95439.38
2023-03-26T10:42:04.061Z,95441.13
2023-03-26T10:44:57.605Z,95432.50
2023-03-26T10:48:12.563Z,95426.41
2023-03-26T10:51:00.389Z,95429.53
2023-03-26T10:53:51.865Z,95419.44
2023-03-26T10:56:40.365Z,95424.19
2023-03-26T10:59:12.577Z,95427.22
2023-03-26T11:01:54.775Z,95434.78
2023-03-26T11:04:55.348Z,95431.69
2023-03-26T11:07:27.113Z,95431.44
2023-03-26T11:10:24.954Z,95426.78
2023-03-26T11:13:25.824Z,95419.00
2023-03-26T11:16:06.387Z,95417.84
2023-03-26T11:19:27.029Z,95412.13
2023-03-26T11:22:07.070Z,95410.50
2023-03-26T11:24:33.835Z,95395.16
2023-03-26T11:27:24.360Z,95399.69
2023-03-26T11:30:21.275Z,95410.16
2023-03-26T11:32:57.205Z,95418.50
2023-03-26T11:35:46.045Z,95417.38
2023-03-26T11:38:23.234Z,95409.72
2023-03-26T11:40:55.213Z,95424.50
2023-03-26T11:43:35.894Z,95415.16
2023-03-26T11:46:12.478Z,95412.47
2023-03-26T11:48:49.918Z,95409.56
2023-03-26T11:51:31.350Z,95389.88
2023-03-26T11:53:58.664Z,95395.66
2023-03-26T11:57:05.688Z,95390.84
2023-03-26T11:59:55.586Z,95384.69
2023-03-26T12:02:38.538Z,95371.28
2023-03-26T12:05:19.241Z,95382.50
2023-03-26T12:08:02.303Z,95380.28
2023-03-26T12:10:37.724Z,95359.63
2023-03-26T12:13:28.445Z,95355.38
2023-03-26T12:16:05.890Z,95349.47
2023-03-26T12:18:32.753Z,95355.34
2023-03-26T12:21:11.585Z,95360.50
2023-03-26T12:24:05.619Z,95364.66
2023-03-26T12:26:45.614Z,95341.66
2023-03-26T12:29:16.590Z,95341.75
2023-03-26T12:32:07.762Z,95336.13
2023-03-26T12:34:37.712Z,95334.44
2023-03-26T12:37:07.610Z,95336.44
2023-03-26T12:40:11.854Z,95335.03
2023-03-26T12:44:51.503Z,95329.13
2023-03-26T12:45:42.222Z,95325.44
2023-03-26T12:48:15.631Z,95322.34
2023-03-26T12:51:21.497Z,95315.97
2023-03-26T12:54:09.754Z,95318.34
2023-03-26T12:56:50.014Z,95327.88
2023-03-26T13:00:21.263Z,95320.81
2023-03-26T13:03:15.446Z,95306.13
2023-03-26T13:06:04.990Z,95315.34
2023-03-26T13:09:12.299Z,95298.69
2023-03-26T13:12:09.158Z,95392.44
2023-03-26T13:15:20.132Z,95373.69
2023-03-26T13:18:10.270Z,95369.44
2023-03-26T13:20:50.160Z,95361.94
2023-03-26T13:23:34.770Z,95358.78
2023-03-26T13:26:16.673Z,95327.50
2023-03-26T13:29:15.871Z,95311.16
2023-03-26T13:31:54.761Z,95317.06
2023-03-26T13:34:28.010Z,95297.59
2023-03-26T13:37:17.208Z,95305.09
2023-03-26T13:40:17.653Z,95320.88
2023-03-26T13:43:36.131Z,95304.66
2023-03-26T13:46:21.600Z,95286.16
2023-03-26T13:49:02.198Z,95301.59
2023-03-26T13:52:02.820Z,95293.47
2023-03-26T13:54:44.584Z,95277.13
2023-03-26T13:57:34.808Z,95252.53
2023-03-26T14:00:23.395Z,95259.78
2023-03-26T14:03:01.849Z,95272.25
2023-03-26T14:05:42.568Z,95289.34
2023-03-26T14:08:32.389Z,95318.47
2023-03-26T14:11:10.852Z,95310.66
2023-03-26T14:13:54.641Z,95304.94
2023-03-26T14:16:35.592Z,95291.41
2023-03-26T14:19:21.132Z,95271.19
2023-03-26T14:22:07.613Z,95270.09
2023-03-26T14:25:24.246Z,95273.41
2023-03-26T14:28:02.083Z,95260.88
2023-03-26T14:30:41.914Z,95253.78
2023-03-26T14:33:45.668Z,95232.50
2023-03-26T14:36:34.886Z,95225.19
2023-03-26T14:39:37.246Z,95221.41
2023-03-26T14:42:29.845Z,95225.19
2023-03-26T14:45:52.574Z,95227.72
2023-03-26T14:48:33.662Z,95229.44
2023-03-26T14:51:27.315Z,95222.75
2023-03-26T14:54:07.879Z,95209.25
2023-03-26T14:56:48.160Z,95210.69
2023-03-26T14:59:55.285Z,95215.00
2023-03-26T15:02:55.451Z,95215.16
2023-03-26T15:05:44.016Z,95203.53
2023-03-26T15:08:33.732Z,95210.84
2023-03-26T15:11:20.922Z,95217.06
2023-03-26T15:14:30.949Z,95221.75
2023-03-26T15:17:19.189Z,95219.09
2023-03-26T15:20:06.043Z,95217.34
2023-03-26T15:23:29.352Z,95227.97
2023-03-26T15:26:30.530Z,95220.72
2023-03-26T15:29:28.156Z,95213.84
2023-03-26T15:32:59.380Z,95212.22
2023-03-26T15:35:45.306Z,95207.94
2023-03-26T15:38:55.039Z,95210.03
2023-03-26T15:41:56.268Z,95206.88
2023-03-26T15:44:31.667Z,95197.00
2023-03-26T15:47:28.084Z,95206.38
2023-03-26T15:50:23.335Z,95212.00
2023-03-26T15:53:23.342Z,95201.25
2023-03-26T15:56:36.320Z,95211.16
2023-03-26T15:59:31.525Z,95206.38
2023-03-26T16:02:22.652Z,95193.84
2023-03-26T16:05:04.937Z,95191.56
2023-03-26T16:07:58.690Z,95196.25
2023-03-26T16:10:51.941Z,95189.38
2023-03-26T16:13:40.620Z,95190.44
2023-03-26T16:16:16.359Z,95199.41
2023-03-26T16:18:45.249Z,95200.75
2023-03-26T16:21:32.356Z,95197.13
2023-03-26T16:24:02.531Z,95184.78
2023-03-26T16:26:44.709Z,95190.44
2023-03-26T16:29:14.597Z,95185.50
2023-03-26T16:32:05.615Z,95188.44
2023-03-26T16:34:56.518Z,95194.19
2023-03-26T16:37:46.008Z,95196.56
2023-03-26T16:40:22.251Z,95201.16
2023-03-26T16:43:16.769Z,95195.50
2023-03-26T16:46:17.328Z,95190.44
2023-03-26T16:49:16.545Z,95191.28
2023-03-26T16:51:59.770Z,95172.19
2023-03-26T16:54:42.233Z,95161.81
2023-03-26T16:57:27.601Z,95165.97
2023-03-26T17:00:48.078Z,95163.34
2023-03-26T17:03:45.992Z,95162.69
2023-03-26T17:07:08.684Z,95151.88
2023-03-26T17:10:02.814Z,95155.94
2023-03-26T17:12:57.902Z,95153.47
2023-03-26T17:15:55.906Z,95150.47
2023-03-26T17:18:41.491Z,95147.81
2023-03-26T17:21:28.873Z,95150.38
2023-03-26T17:24:23.648Z,95154.16
2023-03-26T17:27:18.684Z,95150.84
2023-03-26T17:30:07.785Z,95150.63
2023-03-26T17:32:59.808Z,95151.66
2023-03-26T17:35:41.010Z,95153.19
2023-03-26T17:38:30.752Z,95155.69
2023-03-26T17:40:59.632Z,95154.44
2023-03-26T17:43:37.250Z,95157.56
2023-03-26T17:46:33.944Z,95159.75
2023-03-26T17:49:12.622Z,95161.16
2023-03-26T17:52:21.298Z,95173.50
2023-03-26T17:54:52.460Z,95171.56
2023-03-26T17:57:33.831Z,95180.88
2023-03-26T18:00:01.700Z,95183.41
2023-03-26T18:02:42.397Z,95196.25
2023-03-26T18:05:13.723Z,95195.81
2023-03-26T18:08:32.214Z,95208.03
2023-03-26T18:11:37.350Z,95203.56
2023-03-26T18:14:34.416Z,95204.00
2023-03-26T18:17:02.047Z,95225.66
2023-03-26T18:19:31.804Z,95223.47
2023-03-26T18:22:04.013Z,95217.28
2023-03-26T18:24:39.819Z,95210.16
2023-03-26T18:27:18.805Z,95222.06
2023-03-26T18:30:09.350Z,95217.84
2023-03-26T18:32:52.865Z,95225.69
2023-03-26T18:35:21.904Z,95203.84
2023-03-26T18:37:53.400Z,95215.50
2023-03-26T18:40:23.418Z,95215.66
2023-03-26T18:42:56.070Z,95210.91
2023-03-26T18:45:36.368Z,95214.06
2023-03-26T18:48:20.590Z,95214.53
2023-03-26T18:50:54.275Z,95232.38
2023-03-26T18:53:39.896Z,95233.75
2023-03-26T18:56:31.118Z,95224.13
2023-03-26T18:59:00.191Z,95220.38
2023-03-26T19:01:33.077Z,95232.63
2023-03-26T19:04:05.348Z,95221.19
2023-03-26T19:06:38.257Z,95214.88
2023-03-26T19:09:16.291Z,95233.00
2023-03-26T19:11:59.286Z,95230.63
2023-03-26T19:14:28.426Z,95228.66
2023-03-26T19:17:05.534Z,95229.56
2023-03-26T19:19:36.797Z,95224.16
2023-03-26T19:22:06.315Z,95229.50
2023-03-26T19:24:33.769Z,95222.09
2023-03-26T19:27:01.062Z,95229.56
2023-03-26T19:29:32.645Z,95223.75
2023-03-26T19:32:32.830Z,95232.47
2023-03-26T19:35:02.046Z,95227.41
2023-03-26T19:37:30.953Z,95221.88
2023-03-26T19:40:14.077Z,95218.53
2023-03-26T19:42:44.808Z,95233.66
2023-03-26T19:45:23.174Z,95228.69
2023-03-26T19:48:03.540Z,95223.63
2023-03-26T19:50:37.105Z,95231.50
2023-03-26T19:53:25.310Z,95241.13
2023-03-26T19:56:18.658Z,95245.03
2023-03-26T19:58:45.780Z,95246.38
2023-03-26T20:01:26.544Z,95236.69
2023-03-26T20:03:58.020Z,95223.88
2023-03-26T20:06:41.799Z,95225.06
2023-03-26T20:09:12.325Z,95236.28
2023-03-26T20:11:39.817Z,95246.09
2023-03-26T20:14:33.781Z,95246.38
2023-03-26T20:17:00.630Z,95252.69
2023-03-26T20:19:27.491Z,95247.06
2023-03-26T20:21:54.553Z,95251.84
2023-03-26T20:24:21.667Z,95250.06
2023-03-26T20:26:48.658Z,95257.22
2023-03-26T20:29:16.421Z,95250.25
2023-03-26T20:31:43.837Z,95248.41
2023-03-26T20:34:21.921Z,95265.59
2023-03-26T20:36:54.865Z,95245.84
2023-03-26T20:39:25.337Z,95255.41
2023-03-26T20:41:54.241Z,95256.13
2023-03-26T20:44:22.411Z,95251.00
2023-03-26T20:46:50.135Z,95247.81
2023-03-26T20:49:18.128Z,95252.25
2023-03-26T20:51:45.655Z,95250.75
2023-03-26T20:54:25.098Z,95234.06
2023-03-26T20:56:54.128Z,95242.41
2023-03-26T20:59:26.076Z,95241.78
2023-03-26T21:01:54.599Z,95246.66
2023-03-26T21:04:21.975Z,95244.47
2023-03-26T21:06:49.202Z,95251.75
2023-03-26T21:09:23.302Z,95252.56
2023-03-26T21:12:05.511Z,95244.00
2023-03-26T21:14:38.976Z,95246.50
2023-03-26T21:17:08.099Z,95247.94
2023-03-26T21:19:35.163Z,95241.41
2023-03-26T21:22:37.528Z,95246.31
2023-03-26T21:25:19.588Z,95244.44
2023-03-26T21:28:08.322Z,95249.00
2023-03-26T21:30:35.559Z,95246.38
2023-03-26T21:33:05.085Z,95255.47
2023-03-26T21:35:34.405Z,95249.84
2023-03-26T21:38:04.396Z,95244.16
2023-03-26T21:40:31.814Z,95252.75
2023-03-26T21:42:59.082Z,95260.00
2023-03-26T21:45:26.668Z,95253.03
2023-03-26T21:47:54.057Z,95248.63
2023-03-26T21:50:23.407Z,95256.97
2023-03-26T21:52:51.914Z,95263.81
2023-03-26T21:55:21.943Z,95261.59
2023-03-26T21:58:28.568Z,95256.06
2023-03-26T22:01:12.816Z,95247.41
2023-03-26T22:03:51.646Z,95255.59
2023-03-26T22:06:31.379Z,95247.41
2023-03-26T22:08:59.552Z,95252.59
2023-03-26T22:11:26.559Z,95258.63
2023-03-26T22:13:55.421Z,95244.00
2023-03-26T22:16:25.444Z,95250.22
2023-03-26T22:18:53.741Z,95250.47
2023-03-26T22:21:23.278Z,95249.66
2023-03-26T22:23:54.637Z,95250.78
2023-03-26T22:26:25.986Z,95257.78
2023-03-26T22:28:53.084Z,95254.09
2023-03-26T22:31:19.972Z,95253.59
2023-03-26T22:33:47.197Z,95265.19
2023-03-26T22:36:22.626Z,95251.63
2023-03-26T22:38:53.586Z,95267.19
2023-03-26T22:41:22.154Z,95258.94
2023-03-26T22:43:51.904Z,95258.88
2023-03-26T22:46:21.000Z,95257.31
2023-03-26T22:48:51.385Z,95249.78
2023-03-26T22:51:18.991Z,95249.78
2023-03-26T22:53:45.846Z,95254.19
2023-03-26T22:56:14.263Z,95248.84
2023-03-26T22:58:42.157Z,95255.81
2023-03-26T23:01:16.730Z,95259.34
2023-03-26T23:03:44.681Z,95243.03
2023-03-26T23:06:12.666Z,95249.81
2023-03-26T23:08:40.499Z,95246.56
2023-03-26T23:11:20.275Z,95247.47
2023-03-26T23:13:47.837Z,95249.88
2023-03-26T23:16:17.112Z,95247.75
2023-03-26T23:18:44.873Z,95246.75
2023-03-26T23:21:18.401Z,95250.47
2023-03-26T23:23:46.004Z,95245.72
2023-03-26T23:26:14.386Z,95253.59
2023-03-26T23:28:41.597Z,95249.63
2023-03-26T23:31:10.751Z,95250.28
2023-03-26T23:33:39.235Z,95256.25
2023-03-26T23:36:10.979Z,95250.63
2023-03-26T23:38:43.837Z,95239.16
2023-03-26T23:41:14.860Z,95245.56
2023-03-26T23:43:54.777Z,95240.50
2023-03-26T23:46:30.638Z,95244.31
2023-03-26T23:48:59.850Z,95244.84
2023-03-26T23:51:26.986Z,95246.31
2023-03-26T23:53:53.908Z,95232.13
2023-03-26T23:56:20.973Z,95240.53
2023-03-26T23:58:48.945Z,95241.94
